createdAt,value
2023-04-09T00:01:04.530Z,3.10
2023-04-09T00:03:31.920Z,2.75
2023-04-09T00:05:59.489Z,2.75
2023-04-09T00:08:26.747Z,3.15
2023-04-09T00:10:54.458Z,3.05
2023-04-09T00:13:31.972Z,2.85
2023-04-09T00:16:05.733Z,2.97
2023-04-09T00:18:33.048Z,3.13
2023-04-09T00:20:59.849Z,2.72
2023-04-09T00:23:27.144Z,3.03
2023-04-09T00:25:54.137Z,3.10
2023-04-09T00:28:21.606Z,2.92
2023-04-09T00:30:48.482Z,3.03
2023-04-09T00:33:16.084Z,2.60
2023-04-09T00:35:43.381Z,3.17
2023-04-09T00:38:10.409Z,3.08
2023-04-09T00:40:37.227Z,3.08
2023-04-09T00:43:04.482Z,3.40
2023-04-09T00:45:31.908Z,2.90
2023-04-09T00:47:59.238Z,3.30
2023-04-09T00:50:26.553Z,2.70
2023-04-09T00:52:53.793Z,3.00
2023-04-09T00:55:22.381Z,3.50
2023-04-09T00:57:49.553Z,3.20
2023-04-09T01:00:16.584Z,3.10
2023-04-09T01:02:44.562Z,3.20
2023-04-09T01:05:12.691Z,2.75
2023-04-09T01:07:40.051Z,3.03
2023-04-09T01:10:19.802Z,3.50
2023-04-09T01:13:13.259Z,3.40
2023-04-09T01:15:46.794Z,3.25
2023-04-09T01:18:17.964Z,3.53
2023-04-09T01:21:06.909Z,3.53
2023-04-09T01:23:58.254Z,3.20
2023-04-09T01:27:05.524Z,3.20
2023-04-09T01:30:00.902Z,3.33
2023-04-09T01:32:28.711Z,3.22
2023-04-09T01:34:56.499Z,3.63
2023-04-09T01:37:24.884Z,3.25
2023-04-09T01:39:52.218Z,3.22
2023-04-09T01:42:19.918Z,4.20
2023-04-09T01:44:47.572Z,3.88
2023-04-09T01:47:15.317Z,3.28
2023-04-09T01:49:43.486Z,3.72
2023-04-09T01:52:10.736Z,3.83
2023-04-09T01:54:38.182Z,3.63
2023-04-09T01:57:05.003Z,3.88
2023-04-09T01:59:31.899Z,4.20
2023-04-09T02:02:01.933Z,3.97
2023-04-09T02:04:29.177Z,3.72
2023-04-09T02:07:17.151Z,4.50
2023-04-09T02:09:47.895Z,3.95
2023-04-09T02:12:17.607Z,4.53
2023-04-09T02:14:48.594Z,4.70
2023-04-09T02:17:16.441Z,4.25
2023-04-09T02:19:45.887Z,4.30
2023-04-09T02:22:15.307Z,4.25
2023-04-09T02:24:42.213Z,4.80
2023-04-09T02:27:09.311Z,4.15
2023-04-09T02:29:37.991Z,4.60
2023-04-09T02:32:05.266Z,4.90
2023-04-09T02:34:32.219Z,4.30
2023-04-09T02:36:59.175Z,4.72
2023-04-09T02:39:27.274Z,4.07
2023-04-09T02:41:54.538Z,4.75
2023-04-09T02:44:21.750Z,4.38
2023-04-09T02:46:49.564Z,4.82
2023-04-09T02:49:16.861Z,3.85
2023-04-09T02:51:43.703Z,4.20
2023-04-09T02:54:11.084Z,4.10
2023-04-09T02:56:38.457Z,4.43
2023-04-09T02:59:05.319Z,4.38
2023-04-09T03:01:32.331Z,3.97
2023-04-09T03:04:01.658Z,4.35
2023-04-09T03:06:29.141Z,5.20
2023-04-09T03:08:56.399Z,5.03
2023-04-09T03:11:23.648Z,4.78
2023-04-09T03:13:50.851Z,4.78
2023-04-09T03:16:18.271Z,4.28
2023-04-09T03:18:45.731Z,4.75
2023-04-09T03:21:14.858Z,4.53
2023-04-09T03:23:47.051Z,4.70
2023-04-09T03:26:14.423Z,4.57
2023-04-09T03:28:48.166Z,4.90
2023-04-09T03:31:15.103Z,4.70
2023-04-09T03:33:43.632Z,5.38
2023-04-09T03:36:11.790Z,5.07
2023-04-09T03:39:00.342Z,4.32
2023-04-09T03:41:33.724Z,4.93
2023-04-09T03:44:04.278Z,5.47
2023-04-09T03:46:38.679Z,5.13
2023-04-09T03:49:07.190Z,4.68
2023-04-09T03:51:39.860Z,4.85
2023-04-09T03:54:07.149Z,5.75
2023-04-09T03:56:34.924Z,5.32
2023-04-09T03:59:04.276Z,4.68
2023-04-09T04:01:39.103Z,5.35
2023-04-09T04:04:06.659Z,4.78
2023-04-09T04:06:38.378Z,5.18
2023-04-09T04:09:24.416Z,4.80
2023-04-09T04:11:56.362Z,4.95
2023-04-09T04:14:27.540Z,4.80
2023-04-09T04:17:02.028Z,5.28
2023-04-09T04:19:31.102Z,5.05
2023-04-09T04:21:58.840Z,5.65
2023-04-09T04:24:26.213Z,5.05
2023-04-09T04:26:53.591Z,4.97
2023-04-09T04:29:22.119Z,6.18
2023-04-09T04:31:58.109Z,5.43
2023-04-09T04:34:28.754Z,5.53
2023-04-09T04:37:02.373Z,5.80
2023-04-09T04:39:32.578Z,5.72
2023-04-09T04:42:04.524Z,5.75
2023-04-09T04:44:32.581Z,6.15
2023-04-09T04:47:09.302Z,5.93
2023-04-09T04:49:36.404Z,6.45
2023-04-09T04:52:06.645Z,6.18
2023-04-09T04:54:34.533Z,6.20
2023-04-09T04:57:01.915Z,6.10
2023-04-09T04:59:42.852Z,6.35
2023-04-09T05:02:12.666Z,6.55
2023-04-09T05:05:09.061Z,6.25
2023-04-09T05:07:42.054Z,6.88
2023-04-09T05:10:09.969Z,6.70
2023-04-09T05:12:41.376Z,6.40
2023-04-09T05:15:09.546Z,5.85
2023-04-09T05:17:38.195Z,6.22
2023-04-09T05:20:07.378Z,6.78
2023-04-09T05:22:44.434Z,5.55
2023-04-09T05:25:11.734Z,6.38
2023-04-09T05:27:41.539Z,6.40
2023-04-09T05:30:09.281Z,6.40
2023-04-09T05:32:37.600Z,6.53
2023-04-09T05:35:05.748Z,6.30
2023-04-09T05:37:38.606Z,6.65
2023-04-09T05:40:07.117Z,6.78
2023-04-09T05:42:34.345Z,6.70
2023-04-09T05:45:11.035Z,6.65
2023-04-09T05:47:45.221Z,6.80
2023-04-09T05:50:18.066Z,6.63
2023-04-09T05:52:45.021Z,6.43
2023-04-09T05:55:14.386Z,7.03
2023-04-09T05:57:53.257Z,6.13
2023-04-09T06:00:21.793Z,6.40
2023-04-09T06:02:50.438Z,7.18
2023-04-09T06:05:17.779Z,6.85
2023-04-09T06:07:45.978Z,7.63
2023-04-09T06:10:14.619Z,7.40
2023-04-09T06:12:42.221Z,7.43
2023-04-09T06:15:10.252Z,6.50
2023-04-09T06:17:38.114Z,6.90
2023-04-09T06:20:06.137Z,6.82
2023-04-09T06:22:33.418Z,6.68
2023-04-09T06:25:00.757Z,7.25
2023-04-09T06:27:28.106Z,8.02
2023-04-09T06:29:55.365Z,7.88
2023-04-09T06:32:22.627Z,7.38
2023-04-09T06:34:49.738Z,7.13
2023-04-09T06:37:16.982Z,7.78
2023-04-09T06:39:50.679Z,7.35
2023-04-09T06:42:27.499Z,8.48
2023-04-09T06:45:08.588Z,7.70
2023-04-09T06:47:36.338Z,7.85
2023-04-09T06:50:03.820Z,6.80
2023-04-09T06:52:31.039Z,7.55
2023-04-09T06:54:58.288Z,8.38
2023-04-09T06:57:26.319Z,8.93
2023-04-09T06:59:53.687Z,8.10
2023-04-09T07:02:21.033Z,9.80
2023-04-09T07:04:48.332Z,9.20
2023-04-09T07:07:15.434Z,8.07
2023-04-09T07:09:43.136Z,7.30
2023-04-09T07:12:10.768Z,8.43
2023-04-09T07:14:38.122Z,8.32
2023-04-09T07:17:05.370Z,8.32
2023-04-09T07:19:32.597Z,9.10
2023-04-09T07:21:59.817Z,8.95
2023-04-09T07:24:27.051Z,8.00
2023-04-09T07:26:54.618Z,7.95
2023-04-09T07:29:22.459Z,8.20
2023-04-09T07:31:49.474Z,8.27
2023-04-09T07:34:16.949Z,8.77
2023-04-09T07:36:44.012Z,8.45
2023-04-09T07:39:11.294Z,8.70
2023-04-09T07:41:38.084Z,8.80
2023-04-09T07:44:06.410Z,9.60
2023-04-09T07:46:33.862Z,8.50
2023-04-09T07:49:01.122Z,7.95
2023-04-09T07:51:28.626Z,8.35
2023-04-09T07:53:55.914Z,7.82
2023-04-09T07:56:23.176Z,8.45
2023-04-09T07:58:50.935Z,8.27
2023-04-09T08:01:18.318Z,7.82
2023-04-09T08:03:45.556Z,7.95
2023-04-09T08:06:12.967Z,7.10
2023-04-09T08:08:39.856Z,7.20
2023-04-09T08:11:07.230Z,7.55
2023-04-09T08:13:34.525Z,6.78
2023-04-09T08:16:02.363Z,7.80
2023-04-09T08:18:29.753Z,8.10
2023-04-09T08:20:57.395Z,7.47
2023-04-09T08:23:24.397Z,7.75
2023-04-09T08:25:51.622Z,8.57
2023-04-09T08:28:19.050Z,8.63
2023-04-09T08:30:47.788Z,7.57
2023-04-09T08:33:15.400Z,7.45
2023-04-09T08:35:42.722Z,7.07
2023-04-09T08:38:09.979Z,7.30
2023-04-09T08:40:37.446Z,7.82
2023-04-09T08:43:08.985Z,7.75
2023-04-09T08:45:36.830Z,8.10
2023-04-09T08:48:05.213Z,7.88
2023-04-09T08:50:35.714Z,8.43
2023-04-09T08:53:08.101Z,7.20
2023-04-09T08:55:35.543Z,7.75
2023-04-09T08:58:07.249Z,8.73
2023-04-09T09:00:34.518Z,7.72
2023-04-09T09:03:03.445Z,7.70
2023-04-09T09:05:37.760Z,7.90
2023-04-09T09:08:05.085Z,7.78
2023-04-09T09:10:58.133Z,6.20
2023-04-09T09:13:27.180Z,6.15
2023-04-09T09:16:11.491Z,6.95
2023-04-09T09:18:40.471Z,6.63
2023-04-09T09:21:16.398Z,6.60
2023-04-09T09:23:44.037Z,6.70
2023-04-09T09:26:16.584Z,7.07
2023-04-09T09:28:44.096Z,6.63
2023-04-09T09:31:12.465Z,6.40
2023-04-09T09:33:39.924Z,6.65
2023-04-09T09:36:09.173Z,6.32
2023-04-09T09:38:57.227Z,6.10
2023-04-09T09:41:24.915Z,5.93
2023-04-09T09:43:52.311Z,6.43
2023-04-09T09:46:19.897Z,6.00
2023-04-09T09:48:46.908Z,6.68
2023-04-09T09:51:15.410Z,5.90
2023-04-09T09:53:45.922Z,5.07
2023-04-09T09:56:21.612Z,4.95
2023-04-09T09:59:13.103Z,4.85
2023-04-09T10:01:41.188Z,5.72
2023-04-09T10:04:13.637Z,4.85
2023-04-09T10:06:45.290Z,5.28
2023-04-09T10:09:13.582Z,4.80
2023-04-09T10:11:45.666Z,4.63
2023-04-09T10:14:13.689Z,5.63
2023-04-09T10:16:41.962Z,4.40
2023-04-09T10:19:13.842Z,4.20
2023-04-09T10:21:47.734Z,4.68
2023-04-09T10:24:16.019Z,4.95
2023-04-09T10:26:45.056Z,4.55
2023-04-09T10:29:14.680Z,4.60
2023-04-09T10:31:53.365Z,4.72
2023-04-09T10:34:26.721Z,5.30
2023-04-09T10:36:57.155Z,4.85
2023-04-09T10:39:29.803Z,4.80
2023-04-09T10:41:58.233Z,5.20
2023-04-09T10:44:27.126Z,5.60
2023-04-09T10:46:55.279Z,5.50
2023-04-09T10:49:23.106Z,5.05
2023-04-09T10:52:01.265Z,4.90
2023-04-09T10:54:34.549Z,4.20
2023-04-09T10:57:07.482Z,4.05
2023-04-09T10:59:35.946Z,3.45
2023-04-09T11:02:07.044Z,4.13
2023-04-09T11:04:42.417Z,4.75
2023-04-09T11:07:09.941Z,4.20
2023-04-09T11:09:37.147Z,4.32
2023-04-09T11:12:04.641Z,4.03
2023-04-09T11:14:31.765Z,3.90
2023-04-09T11:16:58.599Z,3.97
2023-04-09T11:19:26.308Z,4.15
2023-04-09T11:21:53.196Z,3.50
2023-04-09T11:24:20.004Z,3.50
2023-04-09T11:26:48.645Z,3.53
2023-04-09T11:29:15.651Z,3.80
2023-04-09T11:31:46.161Z,3.67
2023-04-09T11:34:13.450Z,3.65
2023-04-09T11:36:40.978Z,3.22
2023-04-09T11:39:07.760Z,3.38
2023-04-09T11:41:38.512Z,3.50
2023-04-09T11:44:06.130Z,3.50
2023-04-09T11:46:33.634Z,3.70
2023-04-09T11:49:01.316Z,3.53
2023-04-09T11:51:30.857Z,3.55
2023-04-09T11:54:03.384Z,3.75
2023-04-09T11:56:31.250Z,3.20
2023-04-09T11:58:58.865Z,3.20
2023-04-09T12:01:31.550Z,3.78
2023-04-09T12:03:58.946Z,3.38
2023-04-09T12:06:26.794Z,3.38
2023-04-09T12:08:58.378Z,4.20
2023-04-09T12:11:37.257Z,3.58
2023-04-09T12:14:05.639Z,3.85
2023-04-09T12:16:34.392Z,3.55
2023-04-09T12:19:06.383Z,3.53
2023-04-09T12:21:56.347Z,3.17
2023-04-09T12:24:24.994Z,3.15
2023-04-09T12:26:52.562Z,3.38
2023-04-09T12:29:20.992Z,3.25
2023-04-09T12:31:48.217Z,3.85
2023-04-09T12:34:15.128Z,3.30
2023-04-09T12:36:41.999Z,3.03
2023-04-09T12:39:09.890Z,2.85
2023-04-09T12:41:36.886Z,3.15
2023-04-09T12:44:04.635Z,3.10
2023-04-09T12:46:32.498Z,3.53
2023-04-09T12:48:59.710Z,3.67
2023-04-09T12:51:26.564Z,3.92
2023-04-09T12:53:53.574Z,3.00
2023-04-09T12:56:20.622Z,3.17
2023-04-09T12:58:47.433Z,3.65
2023-04-09T13:01:14.315Z,3.28
2023-04-09T13:03:41.756Z,2.65
2023-04-09T13:06:09.046Z,2.85
2023-04-09T13:08:36.381Z,2.80
2023-04-09T13:11:04.377Z,3.35
2023-04-09T13:13:31.580Z,2.47
2023-04-09T13:15:58.466Z,2.95
2023-04-09T13:18:25.261Z,2.47
2023-04-09T13:20:52.152Z,2.42
2023-04-09T13:23:18.972Z,2.22
2023-04-09T13:25:45.761Z,2.03
2023-04-09T13:28:12.555Z,2.58
2023-04-09T13:30:39.411Z,2.60
2023-04-09T13:33:06.279Z,2.15
2023-04-09T13:35:33.181Z,2.42
2023-04-09T13:38:00.895Z,2.42
2023-04-09T13:40:27.778Z,2.30
2023-04-09T13:42:54.620Z,2.20
2023-04-09T13:45:23.829Z,2.45
2023-04-09T13:47:51.074Z,2.03
2023-04-09T13:50:18.080Z,2.53
2023-04-09T13:52:44.865Z,2.80
2023-04-09T13:55:12.054Z,2.88
2023-04-09T13:57:38.930Z,2.30
2023-04-09T14:00:07.280Z,2.33
2023-04-09T14:02:34.192Z,2.00
2023-04-09T14:05:02.582Z,2.28
2023-04-09T14:07:29.526Z,1.95
2023-04-09T14:09:56.329Z,1.92
2023-04-09T14:12:23.163Z,1.98
2023-04-09T14:14:50.399Z,1.90
2023-04-09T14:17:17.236Z,1.85
2023-04-09T14:19:44.036Z,1.52
2023-04-09T14:22:11.570Z,1.40
2023-04-09T14:24:40.096Z,1.52
2023-04-09T14:27:08.212Z,1.38
2023-04-09T14:29:35.555Z,1.48
2023-04-09T14:32:02.408Z,1.58
2023-04-09T14:34:30.560Z,1.70
2023-04-09T14:36:57.427Z,1.70
2023-04-09T14:39:24.429Z,1.45
2023-04-09T14:41:51.833Z,0.95
2023-04-09T14:44:18.797Z,1.45
2023-04-09T14:46:45.792Z,1.30
2023-04-09T14:49:12.786Z,1.08
2023-04-09T14:51:39.689Z,1.48
2023-04-09T14:54:06.778Z,1.20
2023-04-09T14:56:33.712Z,1.67
2023-04-09T14:59:00.601Z,1.60
2023-04-09T15:01:28.113Z,1.25
2023-04-09T15:03:55.533Z,1.20
2023-04-09T15:06:23.048Z,1.48
2023-04-09T15:08:49.968Z,1.20
2023-04-09T15:11:18.750Z,1.02
2023-04-09T15:13:45.841Z,1.25
2023-04-09T15:16:21.514Z,1.27
2023-04-09T15:18:51.413Z,1.35
2023-04-09T15:21:18.697Z,1.15
2023-04-09T15:23:46.254Z,1.20
2023-04-09T15:26:13.284Z,1.23
2023-04-09T15:28:40.305Z,1.20
2023-04-09T15:31:08.148Z,1.20
2023-04-09T15:33:35.455Z,1.17
2023-04-09T15:36:02.823Z,1.10
2023-04-09T15:38:30.042Z,1.40
2023-04-09T15:40:57.269Z,1.15
2023-04-09T15:43:24.194Z,0.90
2023-04-09T15:45:51.881Z,1.23
2023-04-09T15:48:19.355Z,1.17
2023-04-09T15:50:46.707Z,1.52
2023-04-09T15:53:15.076Z,1.45
2023-04-09T15:55:42.415Z,1.33
2023-04-09T15:58:09.306Z,1.25
2023-04-09T16:00:36.224Z,1.17
2023-04-09T16:03:03.399Z,1.50
2023-04-09T16:05:30.329Z,1.20
2023-04-09T16:07:59.731Z,1.30
2023-04-09T16:10:27.164Z,1.33
2023-04-09T16:12:53.980Z,1.33
2023-04-09T16:15:21.039Z,1.65
2023-04-09T16:17:48.320Z,0.90
2023-04-09T16:20:15.418Z,1.10
2023-04-09T16:22:42.669Z,1.10
2023-04-09T16:25:09.993Z,1.20
2023-04-09T16:27:37.251Z,1.17
2023-04-09T16:30:04.429Z,1.10
2023-04-09T16:32:31.768Z,1.17
2023-04-09T16:35:00.695Z,1.20
2023-04-09T16:37:29.263Z,1.00
2023-04-09T16:39:57.256Z,1.08
2023-04-09T16:42:26.809Z,1.23
2023-04-09T16:44:54.337Z,1.10
2023-04-09T16:47:21.578Z,1.42
2023-04-09T16:49:48.803Z,1.10
2023-04-09T16:52:16.064Z,1.35
2023-04-09T16:54:42.935Z,1.45
2023-04-09T16:57:10.323Z,1.50
2023-04-09T16:59:37.631Z,1.30
2023-04-09T17:02:05.023Z,1.25
2023-04-09T17:04:34.415Z,1.17
2023-04-09T17:07:01.881Z,1.25
2023-04-09T17:09:29.315Z,1.25
2023-04-09T17:11:57.990Z,1.50
2023-04-09T17:14:24.827Z,1.20
2023-04-09T17:16:53.778Z,1.20
2023-04-09T17:19:21.691Z,1.38
2023-04-09T17:21:48.936Z,1.67
2023-04-09T17:24:15.863Z,1.73
2023-04-09T17:26:43.108Z,1.73
2023-04-09T17:29:09.951Z,1.60
2023-04-09T17:31:38.269Z,1.73
2023-04-09T17:34:05.357Z,1.48
2023-04-09T17:36:32.587Z,1.60
2023-04-09T17:38:59.871Z,1.60
2023-04-09T17:41:27.747Z,1.45
2023-04-09T17:43:55.166Z,1.58
2023-04-09T17:46:22.460Z,1.80
2023-04-09T17:48:49.941Z,1.27
2023-04-09T17:51:19.411Z,1.83
2023-04-09T17:53:47.432Z,1.60
2023-04-09T17:56:16.495Z,1.75
2023-04-09T17:58:46.976Z,1.63
2023-04-09T18:01:14.427Z,1.83
2023-04-09T18:03:46.156Z,1.38
2023-04-09T18:06:15.391Z,2.00
2023-04-09T18:08:43.596Z,1.75
2023-04-09T18:11:13.328Z,1.80
2023-04-09T18:13:41.421Z,1.83
2023-04-09T18:16:10.615Z,1.90
2023-04-09T18:18:38.154Z,1.55
2023-04-09T18:21:06.335Z,1.60
2023-04-09T18:23:33.984Z,1.50
2023-04-09T18:26:01.797Z,1.63
2023-04-09T18:28:29.350Z,1.90
2023-04-09T18:30:57.773Z,1.63
2023-04-09T18:33:25.815Z,1.60
2023-04-09T18:35:53.213Z,2.00
2023-04-09T18:38:21.254Z,1.98
2023-04-09T18:40:48.325Z,1.88
2023-04-09T18:43:15.697Z,2.05
2023-04-09T18:45:43.046Z,2.03
2023-04-09T18:48:10.556Z,2.03
2023-04-09T18:50:38.073Z,1.77
2023-04-09T18:53:06.135Z,1.85
2023-04-09T18:55:37.746Z,1.77
2023-04-09T18:58:08.838Z,1.75
2023-04-09T19:00:36.187Z,1.70
2023-04-09T19:03:04.748Z,1.88
2023-04-09T19:05:32.806Z,1.98
2023-04-09T19:08:01.492Z,1.50
2023-04-09T19:10:29.396Z,1.90
2023-04-09T19:12:56.472Z,1.92
2023-04-09T19:15:29.339Z,1.77
2023-04-09T19:17:57.554Z,1.80
2023-04-09T19:20:24.730Z,1.83
2023-04-09T19:22:56.666Z,1.80
2023-04-09T19:25:24.074Z,1.80
2023-04-09T19:27:53.622Z,2.25
2023-04-09T19:30:21.279Z,2.22
2023-04-09T19:32:48.199Z,2.45
2023-04-09T19:35:15.562Z,2.50
2023-04-09T19:37:42.612Z,2.65
2023-04-09T19:40:09.991Z,2.38
2023-04-09T19:42:36.880Z,2.10
2023-04-09T19:45:04.289Z,2.13
2023-04-09T19:47:31.767Z,1.90
2023-04-09T19:49:58.598Z,2.75
2023-04-09T19:52:26.043Z,2.50
2023-04-09T19:54:56.464Z,2.30
2023-04-09T19:57:23.668Z,2.42
2023-04-09T19:59:52.231Z,2.30
2023-04-09T20:02:19.688Z,2.20
2023-04-09T20:04:46.591Z,2.33
2023-04-09T20:07:14.286Z,3.20
2023-04-09T20:09:42.431Z,2.38
2023-04-09T20:12:10.169Z,2.85
2023-04-09T20:14:38.351Z,2.50
2023-04-09T20:17:06.051Z,2.47
2023-04-09T20:19:33.380Z,2.25
2023-04-09T20:22:00.319Z,2.58
2023-04-09T20:24:28.241Z,2.10
2023-04-09T20:26:55.586Z,2.15
2023-04-09T20:29:22.836Z,2.72
2023-04-09T20:31:50.094Z,2.88
2023-04-09T20:34:17.379Z,2.10
2023-04-09T20:36:44.398Z,2.97
2023-04-09T20:39:11.938Z,2.25
2023-04-09T20:41:39.161Z,2.60
2023-04-09T20:44:06.189Z,2.42
2023-04-09T20:46:33.410Z,2.15
2023-04-09T20:49:01.588Z,2.08
2023-04-09T20:51:28.500Z,2.75
2023-04-09T20:53:55.778Z,2.53
2023-04-09T20:56:23.095Z,2.35
2023-04-09T20:58:50.431Z,2.42
2023-04-09T21:01:18.175Z,2.13
2023-04-09T21:03:45.381Z,2.78
2023-04-09T21:06:12.714Z,2.45
2023-04-09T21:08:42.718Z,3.00
2023-04-09T21:11:10.044Z,2.65
2023-04-09T21:13:53.146Z,3.05
2023-04-09T21:16:22.366Z,2.75
2023-04-09T21:18:50.423Z,3.00
2023-04-09T21:21:17.333Z,3.00
2023-04-09T21:23:44.674Z,2.70
2023-04-09T21:26:11.827Z,3.05
2023-04-09T21:28:38.709Z,2.92
2023-04-09T21:31:06.117Z,2.88
2023-04-09T21:33:33.046Z,2.67
2023-04-09T21:36:00.119Z,2.75
2023-04-09T21:38:27.391Z,2.78
2023-04-09T21:40:54.230Z,3.03
2023-04-09T21:43:21.481Z,2.78
2023-04-09T21:45:48.696Z,2.92
2023-04-09T21:48:16.099Z,2.83
2023-04-09T21:50:42.939Z,2.67
2023-04-09T21:53:10.200Z,2.70
2023-04-09T21:55:37.695Z,3.10
2023-04-09T21:58:05.455Z,2.63
2023-04-09T22:00:32.673Z,2.90
2023-04-09T22:03:01.195Z,2.75
2023-04-09T22:05:28.814Z,2.83
2023-04-09T22:07:56.407Z,2.83
2023-04-09T22:10:23.852Z,3.03
2023-04-09T22:12:51.416Z,2.85
2023-04-09T22:15:19.677Z,2.97
2023-04-09T22:17:47.612Z,3.13
2023-04-09T22:20:14.482Z,2.78
2023-04-09T22:22:42.500Z,3.03
2023-04-09T22:25:11.605Z,2.60
2023-04-09T22:27:38.901Z,2.70
2023-04-09T22:30:06.488Z,2.67
2023-04-09T22:32:33.763Z,2.83
2023-04-09T22:35:01.040Z,3.42
2023-04-09T22:37:28.130Z,2.95
2023-04-09T22:39:55.683Z,2.90
2023-04-09T22:42:22.997Z,3.03
2023-04-09T22:44:49.876Z,3.20
2023-04-09T22:47:17.365Z,3.13
2023-04-09T22:49:44.293Z,2.92
2023-04-09T22:52:11.532Z,3.03
2023-04-09T22:54:38.528Z,2.95
2023-04-09T22:57:05.752Z,3.05
2023-04-09T22:59:40.368Z,2.92
2023-04-09T23:02:08.207Z,3.08
2023-04-09T23:04:35.763Z,3.15
2023-04-09T23:07:02.656Z,2.88
2023-04-09T23:09:31.157Z,2.95
2023-04-09T23:11:58.468Z,3.20
2023-04-09T23:14:25.718Z,2.80
2023-04-09T23:16:52.928Z,3.03
2023-04-09T23:19:20.229Z,3.47
2023-04-09T23:21:47.034Z,2.47
2023-04-09T23:24:14.321Z,3.33
2023-04-09T23:26:41.584Z,3.13
2023-04-09T23:29:08.822Z,3.33
2023-04-09T23:31:36.353Z,2.65
2023-04-09T23:34:03.674Z,2.75
2023-04-09T23:36:30.988Z,3.00
2023-04-09T23:38:57.776Z,3.20
2023-04-09T23:41:24.577Z,3.30
2023-04-09T23:43:52.081Z,3.33
2023-04-09T23:46:19.289Z,2.88
2023-04-09T23:48:46.420Z,2.90
2023-04-09T23:51:20.259Z,3.42
2023-04-09T23:53:47.161Z,3.20
2023-04-09T23:56:14.513Z,3.33
2023-04-09T23:58:41.367Z,2.97
